Time;durP1;ratioP1;P1;durP2;ratioP2;P2;SDS_P1;SDS_P2;PMS_P1;PMS_P2;Temp;Humidity;BMP_temperature;BMP_pressure;BME280_temperature;BME280_humidity;BME280_pressure;Samples;Min_cycle;Max_cycle;Signal;HPM_P1;HPM_P2
2022/09/04 00:00:19;;;;;;;0.20;0.20;;;15.40;91.30;;;;;;5068592;28;20132;-77
2022/09/04 00:03:03;;;;;;;;;;;15.40;91.20;;;;;;5073823;28;20047;-77
2022/09/04 00:05:41;;;;;;;0.30;0.30;;;15.30;90.80;;;;;;5087579;28;19940;-78
2022/09/04 00:08:37;;;;;;;0.30;0.30;;;15.30;91.00;;;;;;5081208;28;20044;-77
2022/09/04 00:11:29;;;;;;;0.20;0.20;;;15.30;91.60;;;;;;5079322;28;20044;-78
2022/09/04 00:13:59;;;;;;;0.20;0.20;;;15.20;92.30;;;;;;5082770;28;20052;-77
2022/09/04 00:16:57;;;;;;;0.20;0.20;;;15.20;91.90;;;;;;5088328;28;20157;-78
2022/09/04 00:19:52;;;;;;;0.22;0.22;;;15.20;92.30;;;;;;5094673;28;20050;-78
2022/09/04 00:22:21;;;;;;;0.30;0.30;;;15.10;91.60;;;;;;5066576;28;20402;-78
2022/09/04 00:25:01;;;;;;;0.45;0.30;;;15.00;92.50;;;;;;5072231;28;20043;-78
2022/09/04 00:27:33;;;;;;;0.20;0.20;;;15.00;93.80;;;;;;5069876;28;20052;-78
2022/09/04 00:30:10;;;;;;;0.20;0.20;;;15.00;94.20;;;;;;5086760;28;20059;-77
2022/09/04 00:33:06;;;;;;;0.20;0.20;;;14.90;93.30;;;;;;5095145;28;20109;-77
2022/09/04 00:35:37;;;;;;;0.40;0.40;;;14.90;94.70;;;;;;5094138;28;20103;-78
2022/09/04 00:38:25;;;;;;;0.20;0.20;;;14.90;96.10;;;;;;5086505;28;20043;-78
2022/09/04 00:41:29;;;;;;;0.30;0.30;;;14.80;95.80;;;;;;5111386;28;20035;-78
2022/09/04 00:44:39;;;;;;;0.30;0.30;;;14.90;95.70;;;;;;5096676;28;20051;-78
2022/09/04 00:47:21;;;;;;;0.40;0.40;;;14.80;95.50;;;;;;5079975;28;20047;-78
2022/09/04 00:49:49;;;;;;;0.40;0.40;;;14.80;97.30;;;;;;5096498;28;20047;-77
2022/09/04 00:52:22;;;;;;;0.25;0.25;;;14.80;99.20;;;;;;5094279;28;20043;-76
2022/09/04 00:55:21;;;;;;;0.30;0.30;;;14.80;98.20;;;;;;5094703;28;20048;-77
2022/09/04 00:57:56;;;;;;;0.30;0.30;;;14.80;98.70;;;;;;5070869;28;20432;-77
2022/09/04 01:00:25;;;;;;;0.30;0.30;;;14.80;99.00;;;;;;5099632;28;20052;-76
2022/09/04 01:03:09;;;;;;;0.45;0.45;;;14.80;99.70;;;;;;5080899;28;20456;-78
2022/09/04 01:05:57;;;;;;;0.30;0.30;;;14.70;98.20;;;;;;5068331;28;20037;-77
2022/09/04 01:09:14;;;;;;;0.30;0.30;;;14.80;99.90;;;;;;5075362;28;20056;-77
2022/09/04 01:12:24;;;;;;;0.40;0.40;;;14.70;99.90;;;;;;5065981;28;20143;-77
2022/09/04 01:15:17;;;;;;;0.20;0.20;;;14.70;99.90;;;;;;5067675;28;20442;-77
2022/09/04 01:17:45;;;;;;;0.50;0.50;;;14.70;99.90;;;;;;5067245;28;20489;-77
2022/09/04 01:20:18;;;;;;;0.35;0.35;;;14.70;99.90;;;;;;5069914;28;20040;-78
2022/09/04 01:23:01;;;;;;;0.30;0.30;;;14.70;99.90;;;;;;5087459;28;20145;-76
2022/09/04 01:25:46;;;;;;;0.30;0.30;;;14.60;99.80;;;;;;5074320;28;20055;-77
2022/09/04 01:28:35;;;;;;;0.30;0.30;;;14.60;99.90;;;;;;5079118;28;20574;-77
2022/09/04 01:31:26;;;;;;;0.30;0.30;;;14.60;99.90;;;;;;5107284;28;20048;-76
2022/09/04 01:34:19;;;;;;;0.40;0.40;;;14.60;99.90;;;;;;5076564;28;20512;-77
2022/09/04 01:37:15;;;;;;;0.30;0.30;;;14.60;99.90;;;;;;5077386;28;20493;-77
2022/09/04 01:39:45;;;;;;;0.30;0.30;;;14.50;99.90;;;;;;5085850;28;20388;-76
2022/09/04 01:42:10;;;;;;;0.30;0.30;;;14.60;99.90;;;;;;5094390;28;20044;-78
2022/09/04 01:44:36;;;;;;;;;;;14.50;99.90;;;;;;5098963;28;20066;-76
2022/09/04 01:47:17;;;;;;;0.30;0.30;;;14.50;99.90;;;;;;5100825;28;19916;-77
2022/09/04 01:49:52;;;;;;;0.30;0.30;;;14.40;99.90;;;;;;5096072;28;20049;-76
2022/09/04 01:52:44;;;;;;;0.40;0.40;;;14.40;99.90;;;;;;5081115;28;20509;-77
2022/09/04 01:55:26;;;;;;;0.30;0.30;;;14.40;99.90;;;;;;5091942;28;20040;-78
2022/09/04 01:58:49;;;;;;;0.30;0.30;;;14.30;99.90;;;;;;5068728;28;20105;-77
2022/09/04 02:01:48;;;;;;;0.30;0.30;;;14.20;99.60;;;;;;5033952;28;20033;-78
2022/09/04 02:04:46;;;;;;;0.40;0.40;;;14.20;99.90;;;;;;5039563;28;20060;-78
2022/09/04 02:07:31;;;;;;;0.30;0.30;;;14.10;99.90;;;;;;5081844;28;20060;-77
2022/09/04 02:10:05;;;;;;;0.20;0.20;;;14.00;99.90;;;;;;5090540;28;20052;-76
2022/09/04 02:12:52;;;;;;;0.40;0.40;;;14.00;99.90;;;;;;5069400;28;20040;-78
2022/09/04 02:15:34;;;;;;;0.30;0.30;;;13.90;99.90;;;;;;5103643;28;20044;-78
2022/09/04 02:18:23;;;;;;;0.20;0.20;;;13.90;99.90;;;;;;5103029;28;20048;-76
2022/09/04 02:20:58;;;;;;;0.20;0.20;;;13.80;99.90;;;;;;5079047;28;20032;-76
2022/09/04 02:23:37;;;;;;;0.30;0.30;;;13.70;99.90;;;;;;5095726;28;20050;-76
2022/09/04 02:26:18;;;;;;;0.38;0.38;;;13.70;99.90;;;;;;5078120;28;20045;-77
2022/09/04 02:28:53;;;;;;;0.30;0.30;;;13.60;99.90;;;;;;5094560;28;20391;-77
2022/09/04 02:31:48;;;;;;;0.32;0.32;;;13.60;99.90;;;;;;5100079;28;20060;-77
2022/09/04 02:34:27;;;;;;;0.28;0.28;;;13.50;99.90;;;;;;5073124;28;20072;-77
2022/09/04 02:37:21;;;;;;;0.68;0.68;;;13.50;99.90;;;;;;5081388;28;20049;-78
2022/09/04 02:40:10;;;;;;;0.30;0.30;;;13.50;99.90;;;;;;5055952;28;20041;-77
2022/09/04 02:43:03;;;;;;;0.30;0.30;;;13.50;99.90;;;;;;5072273;28;20037;-76
2022/09/04 02:45:41;;;;;;;0.28;0.28;;;13.40;99.90;;;;;;5100273;28;20047;-77
2022/09/04 02:48:25;;;;;;;0.40;0.40;;;13.40;99.90;;;;;;5067271;28;20082;-77
2022/09/04 02:51:28;;;;;;;0.30;0.30;;;13.40;99.90;;;;;;5086973;28;20054;-76
2022/09/04 02:54:11;;;;;;;0.30;0.30;;;13.30;99.90;;;;;;5088329;28;20044;-78
2022/09/04 02:56:51;;;;;;;0.40;0.40;;;13.30;99.90;;;;;;5083074;28;20039;-77
2022/09/04 03:00:16;;;;;;;0.40;0.40;;;13.30;99.90;;;;;;5091693;28;20096;-77
2022/09/04 03:02:59;;;;;;;0.43;0.43;;;13.30;99.90;;;;;;5051946;28;20442;-77
2022/09/04 03:05:45;;;;;;;0.43;0.43;;;13.30;99.90;;;;;;5074897;28;20075;-77
2022/09/04 03:08:22;;;;;;;0.30;0.30;;;13.20;99.90;;;;;;5107130;28;20058;-78
2022/09/04 03:11:15;;;;;;;0.30;0.30;;;13.20;99.90;;;;;;5113099;28;20489;-77
2022/09/04 03:13:44;;;;;;;0.40;0.40;;;13.20;99.90;;;;;;5098585;28;20062;-77
2022/09/04 03:16:42;;;;;;;0.35;0.35;;;13.10;99.90;;;;;;5079175;28;20094;-77
2022/09/04 03:19:19;;;;;;;0.50;0.50;;;13.10;99.90;;;;;;5066675;28;20513;-77
2022/09/04 03:21:59;;;;;;;0.47;0.47;;;13.10;99.90;;;;;;5072051;28;20044;-77
2022/09/04 03:24:30;;;;;;;0.30;0.30;;;13.00;99.90;;;;;;5071565;28;20040;-77
2022/09/04 03:27:00;;;;;;;0.40;0.40;;;13.00;99.90;;;;;;5078661;28;20040;-77
2022/09/04 03:29:36;;;;;;;0.40;0.40;;;12.90;99.90;;;;;;5091507;28;20043;-77
2022/09/04 03:32:31;;;;;;;0.30;0.30;;;12.90;99.90;;;;;;5112878;28;20067;-78
2022/09/04 03:35:15;;;;;;;0.50;0.50;;;12.90;99.90;;;;;;5072084;28;20037;-77
2022/09/04 03:38:01;;;;;;;0.35;0.35;;;12.90;99.90;;;;;;5094660;28;20035;-78
2022/09/04 03:40:48;;;;;;;0.40;0.40;;;12.90;99.90;;;;;;5093914;28;20031;-77
2022/09/04 03:43:13;;;;;;;0.30;0.30;;;12.80;99.90;;;;;;5081037;28;20141;-78
2022/09/04 03:46:03;;;;;;;0.30;0.30;;;12.80;99.90;;;;;;5071581;28;20048;-77
2022/09/04 03:48:44;;;;;;;0.40;0.40;;;12.80;99.90;;;;;;5071719;28;20047;-76
2022/09/04 03:51:24;;;;;;;0.40;0.40;;;12.70;99.90;;;;;;5075153;28;20430;-77
2022/09/04 03:54:16;;;;;;;0.35;0.35;;;12.80;99.90;;;;;;5088082;28;20504;-78
2022/09/04 03:57:06;;;;;;;0.45;0.45;;;12.70;99.90;;;;;;5064003;28;20056;-78
2022/09/04 04:00:00;;;;;;;0.30;0.30;;;12.70;99.90;;;;;;5070247;28;20048;-77
2022/09/04 04:02:44;;;;;;;0.30;0.30;;;12.70;99.90;;;;;;5074545;28;20048;-78
2022/09/04 04:05:47;;;;;;;0.32;0.32;;;12.60;99.90;;;;;;5071889;28;20036;-76
2022/09/04 04:08:37;;;;;;;0.38;0.38;;;12.60;99.90;;;;;;5073419;28;20055;-77
2022/09/04 04:11:29;;;;;;;0.40;0.40;;;12.60;99.90;;;;;;5089684;28;20135;-77
2022/09/04 04:14:29;;;;;;;0.30;0.30;;;12.60;99.90;;;;;;5091265;28;20074;-78
2022/09/04 04:17:26;;;;;;;0.52;0.52;;;12.60;99.90;;;;;;5097906;28;20071;-78
2022/09/04 04:20:17;;;;;;;0.50;0.50;;;12.50;99.90;;;;;;5111949;28;20369;-78
2022/09/04 04:22:54;;;;;;;0.40;0.40;;;12.50;99.90;;;;;;5087565;28;20044;-77
2022/09/04 04:25:47;;;;;;;0.90;0.90;;;12.50;99.90;;;;;;5099674;28;20066;-78
2022/09/04 04:28:45;;;;;;;0.30;0.30;;;12.50;99.90;;;;;;5077522;28;20070;-78
2022/09/04 04:31:33;;;;;;;0.40;0.40;;;12.50;99.90;;;;;;5083928;28;20113;-77
2022/09/04 04:34:08;;;;;;;0.45;0.45;;;12.40;99.90;;;;;;5105014;28;20044;-77
2022/09/04 04:36:46;;;;;;;0.60;0.60;;;12.40;99.90;;;;;;5070833;28;20045;-79
2022/09/04 04:39:21;;;;;;;0.45;0.45;;;12.40;99.90;;;;;;5104125;28;20047;-78
2022/09/04 04:42:05;;;;;;;0.45;0.45;;;12.40;99.90;;;;;;5096870;28;20036;-77
2022/09/04 04:48:14;;;;;;;0.30;0.30;;;12.50;99.90;;;;;;5111523;28;20572;-78
2022/09/04 04:50:49;;;;;;;0.38;0.38;;;12.50;99.90;;;;;;5097160;28;20043;-79
2022/09/04 04:53:46;;;;;;;0.50;0.50;;;12.60;99.90;;;;;;5078120;28;20454;-78
2022/09/04 04:56:32;;;;;;;0.40;0.40;;;12.60;99.90;;;;;;5057468;28;20057;-77
2022/09/04 04:59:05;;;;;;;0.40;0.40;;;12.70;99.90;;;;;;5085007;28;20101;-77
2022/09/04 05:02:05;;;;;;;0.30;0.30;;;12.70;99.90;;;;;;5083630;28;20123;-78
2022/09/04 05:05:14;;;;;;;0.40;0.40;;;12.80;99.90;;;;;;5100761;28;20044;-78
2022/09/04 05:07:51;;;;;;;0.30;0.30;;;12.80;99.90;;;;;;5068821;28;20371;-79
2022/09/04 05:10:40;;;;;;;0.20;0.20;;;12.90;99.90;;;;;;5084819;28;20119;-78
2022/09/04 05:13:33;;;;;;;0.40;0.40;;;13.00;99.90;;;;;;5083418;28;20072;-77
2022/09/04 05:16:42;;;;;;;0.63;0.60;;;13.00;99.90;;;;;;5095298;28;20587;-78
2022/09/04 05:19:28;;;;;;;0.35;0.35;;;13.00;99.90;;;;;;5092559;28;20046;-76
2022/09/04 05:22:12;;;;;;;0.40;0.40;;;13.00;99.90;;;;;;5069916;28;20048;-77
2022/09/04 05:25:04;;;;;;;0.38;0.38;;;13.10;99.90;;;;;;5052781;28;20041;-77
2022/09/04 05:27:57;;;;;;;0.35;0.35;;;13.10;99.90;;;;;;5069307;28;20059;-77
2022/09/04 05:30:59;;;;;;;0.30;0.30;;;13.10;99.90;;;;;;5087120;28;20049;-77
2022/09/04 05:33:43;;;;;;;0.30;0.30;;;13.10;99.90;;;;;;5067951;28;20152;-78
2022/09/04 05:36:27;;;;;;;0.30;0.30;;;13.10;99.90;;;;;;5079875;28;20047;-77
2022/09/04 05:38:57;;;;;;;0.28;0.28;;;13.10;99.90;;;;;;5092051;28;20067;-77
2022/09/04 05:42:00;;;;;;;0.40;0.40;;;13.10;99.90;;;;;;5087103;28;20047;-78
2022/09/04 05:44:35;;;;;;;0.35;0.35;;;13.20;99.90;;;;;;5082966;28;20050;-77
2022/09/04 05:47:29;;;;;;;0.32;0.32;;;13.20;99.90;;;;;;5110779;28;20040;-77
2022/09/04 05:50:21;;;;;;;0.30;0.30;;;13.30;99.90;;;;;;5102436;28;20071;-77
2022/09/04 05:53:15;;;;;;;0.20;0.20;;;13.30;99.90;;;;;;5069295;28;20045;-78
2022/09/04 05:55:51;;;;;;;0.30;0.30;;;13.40;99.90;;;;;;5076705;28;20121;-78
2022/09/04 05:58:28;;;;;;;0.40;0.40;;;13.50;99.90;;;;;;5075300;28;20502;-77
2022/09/04 06:01:12;;;;;;;0.40;0.40;;;13.50;99.90;;;;;;5082448;28;20193;-78
2022/09/04 06:04:02;;;;;;;0.20;0.20;;;13.60;99.90;;;;;;5069268;28;20048;-77
2022/09/04 06:06:51;;;;;;;0.45;0.45;;;13.70;99.90;;;;;;5096226;28;20047;-78
2022/09/04 06:09:31;;;;;;;0.30;0.30;;;13.70;99.90;;;;;;5069474;28;20402;-78
2022/09/04 06:12:18;;;;;;;0.30;0.30;;;13.80;99.90;;;;;;5085082;28;20036;-77
2022/09/04 06:14:55;;;;;;;0.30;0.30;;;13.90;99.90;;;;;;5074697;28;20044;-77
2022/09/04 06:17:39;;;;;;;0.30;0.30;;;14.00;99.90;;;;;;5069611;28;20425;-78
2022/09/04 06:20:38;;;;;;;0.40;0.40;;;14.10;99.90;;;;;;5077838;28;20046;-79
2022/09/04 06:23:17;;;;;;;0.47;0.47;;;14.10;99.90;;;;;;5093209;28;20044;-77
2022/09/04 06:26:02;;;;;;;0.40;0.40;;;14.20;99.90;;;;;;5081439;28;20044;-76
2022/09/04 06:29:14;;;;;;;0.25;0.25;;;14.20;99.90;;;;;;5053724;28;20570;-76
2022/09/04 06:32:20;;;;;;;0.40;0.40;;;14.30;99.90;;;;;;5070019;28;20405;-78
2022/09/04 06:35:10;;;;;;;0.40;0.40;;;14.40;99.90;;;;;;5081875;28;20371;-77
2022/09/04 06:38:11;;;;;;;0.32;0.32;;;14.50;99.90;;;;;;5087570;28;20085;-76
2022/09/04 06:40:58;;;;;;;0.30;0.30;;;14.50;99.90;;;;;;5020996;28;20085;-76
2022/09/04 06:43:59;;;;;;;0.40;0.40;;;14.60;99.90;;;;;;5105721;28;20058;-77
2022/09/04 06:46:43;;;;;;;1.00;0.70;;;14.70;99.90;;;;;;5089537;28;20050;-77
2022/09/04 06:49:20;;;;;;;0.30;0.30;;;14.70;99.90;;;;;;5109881;28;20040;-76
2022/09/04 06:52:06;;;;;;;0.30;0.30;;;14.80;99.90;;;;;;5108667;28;20044;-77
2022/09/04 06:55:08;;;;;;;0.30;0.30;;;14.90;99.90;;;;;;5099143;28;20489;-77
2022/09/04 06:57:52;;;;;;;0.30;0.30;;;14.90;99.90;;;;;;5096722;28;20488;-77
2022/09/04 07:00:19;;;;;;;0.22;0.22;;;;;;;;;;5074115;28;20046;-77
2022/09/04 07:02:59;;;;;;;0.20;0.20;;;15.20;99.90;;;;;;5063306;28;20408;-77
2022/09/04 07:05:30;;;;;;;0.30;0.30;;;15.30;99.90;;;;;;5076325;28;20492;-77
2022/09/04 07:08:05;;;;;;;0.30;0.30;;;15.50;99.90;;;;;;5105069;28;20036;-77
2022/09/04 07:10:41;;;;;;;0.40;0.40;;;15.50;99.90;;;;;;5069601;28;20046;-76
2022/09/04 07:13:29;;;;;;;0.30;0.30;;;15.80;99.90;;;;;;5093480;28;20047;-77
2022/09/04 07:16:15;;;;;;;0.20;0.20;;;15.90;99.90;;;;;;5104157;28;20181;-77
2022/09/04 07:19:00;;;;;;;0.20;0.20;;;16.10;99.90;;;;;;5087833;28;20138;-77
2022/09/04 07:22:08;;;;;;;0.28;0.28;;;16.20;99.90;;;;;;5082610;28;20562;-77
2022/09/04 07:24:53;;;;;;;0.20;0.20;;;16.30;99.90;;;;;;5071216;28;20135;-76
2022/09/04 07:27:43;;;;;;;0.40;0.40;;;16.40;99.90;;;;;;5067118;28;20397;-77
2022/09/04 07:30:12;;;;;;;0.47;0.47;;;16.50;99.90;;;;;;5072672;28;20044;-77
2022/09/04 07:32:58;;;;;;;0.30;0.30;;;16.60;99.90;;;;;;5101557;28;20489;-77
2022/09/04 07:35:35;;;;;;;0.30;0.30;;;16.70;99.90;;;;;;5079999;28;20045;-76
2022/09/04 07:38:15;;;;;;;0.40;0.40;;;16.90;99.90;;;;;;5072187;28;20047;-77
2022/09/04 07:41:20;;;;;;;0.40;0.40;;;17.10;99.90;;;;;;5071702;28;20044;-77
2022/09/04 07:43:54;;;;;;;1.73;0.60;;;17.20;99.90;;;;;;5080813;28;20036;-77
2022/09/04 07:46:45;;;;;;;0.35;0.35;;;17.30;99.90;;;;;;5091578;28;20058;-78
2022/09/04 07:49:34;;;;;;;0.28;0.28;;;17.50;99.90;;;;;;5099065;28;20488;-77
2022/09/04 07:52:12;;;;;;;0.22;0.22;;;17.60;99.90;;;;;;5112781;28;20050;-78
2022/09/04 07:54:59;;;;;;;0.20;0.20;;;17.70;99.90;;;;;;5099198;28;20048;-77
2022/09/04 07:57:27;;;;;;;0.32;0.32;;;17.80;99.90;;;;;;5098981;28;20048;-78
2022/09/04 08:00:16;;;;;;;0.30;0.30;;;18.00;99.90;;;;;;5073637;28;20649;-78
2022/09/04 08:02:45;;;;;;;0.25;0.25;;;18.10;99.90;;;;;;5071334;28;20378;-77
2022/09/04 08:05:28;;;;;;;0.20;0.20;;;18.20;99.90;;;;;;5104202;28;20043;-78
2022/09/04 08:08:29;;;;;;;0.22;0.20;;;18.30;99.90;;;;;;5096242;28;20055;-78
2022/09/04 08:11:18;;;;;;;0.28;0.28;;;18.50;99.90;;;;;;5079773;28;20109;-78
2022/09/04 08:13:58;;;;;;;0.17;0.17;;;18.70;99.90;;;;;;5063303;28;20056;-78
2022/09/04 08:16:42;;;;;;;0.20;0.20;;;18.80;99.90;;;;;;5100746;28;20381;-78
2022/09/04 08:19:30;;;;;;;0.25;0.25;;;18.90;99.90;;;;;;5079159;28;20119;-79
2022/09/04 08:21:56;;;;;;;0.30;0.30;;;19.10;99.90;;;;;;5083467;28;20537;-78
2022/09/04 08:24:52;;;;;;;0.25;0.25;;;19.20;99.90;;;;;;5074326;28;20040;-77
2022/09/04 08:27:27;;;;;;;0.25;0.25;;;19.30;99.90;;;;;;5096101;28;20087;-78
2022/09/04 08:30:04;;;;;;;0.20;0.20;;;19.40;99.90;;;;;;5062367;28;20178;-77
2022/09/04 08:33:15;;;;;;;0.20;0.20;;;19.50;99.90;;;;;;5075762;28;20494;-78
2022/09/04 08:35:56;;;;;;;0.20;0.20;;;19.60;99.90;;;;;;5070802;28;20088;-77
2022/09/04 08:38:39;;;;;;;0.30;0.30;;;19.70;99.90;;;;;;5070901;28;20466;-77
2022/09/04 08:41:25;;;;;;;0.22;0.22;;;19.80;99.90;;;;;;5083039;28;20040;-77
2022/09/04 08:44:06;;;;;;;0.33;0.33;;;19.90;99.90;;;;;;5093797;28;20087;-77
2022/09/04 08:46:31;;;;;;;0.30;0.30;;;19.90;99.80;;;;;;5071099;28;20131;-78
2022/09/04 08:48:57;;;;;;;0.32;0.32;;;20.10;99.90;;;;;;5101629;28;20127;-77
2022/09/04 08:51:55;;;;;;;0.10;0.10;;;20.20;99.60;;;;;;5080227;28;20169;-77
2022/09/04 08:54:49;;;;;;;0.52;0.52;;;20.30;98.50;;;;;;5099553;28;20050;-79
2022/09/04 08:57:37;;;;;;;0.22;0.22;;;20.40;98.20;;;;;;5075443;28;20040;-77
2022/09/04 09:00:14;;;;;;;0.17;0.17;;;20.50;98.80;;;;;;5102976;28;20044;-77
2022/09/04 09:03:04;;;;;;;0.50;0.50;;;20.70;98.00;;;;;;5087354;28;20560;-77
2022/09/04 09:06:05;;;;;;;0.40;0.40;;;20.90;97.80;;;;;;5094151;28;20446;-76
2022/09/04 09:08:59;;;;;;;0.30;0.30;;;21.00;97.90;;;;;;5094137;28;20149;-77
2022/09/04 09:11:46;;;;;;;0.47;0.47;;;21.20;97.10;;;;;;5110141;28;20051;-77
2022/09/04 09:14:39;;;;;;;0.35;0.30;;;21.40;97.00;;;;;;5072571;28;20048;-76
2022/09/04 09:17:11;;;;;;;0.13;0.13;;;21.50;96.40;;;;;;5078488;28;20044;-77
2022/09/04 09:19:46;;;;;;;0.40;0.40;;;21.60;96.50;;;;;;5074885;28;20044;-78
2022/09/04 09:22:39;;;;;;;0.40;0.40;;;21.70;96.00;;;;;;5057525;28;20045;-77
2022/09/04 09:25:23;;;;;;;0.30;0.30;;;21.70;95.50;;;;;;5064647;28;20075;-78
2022/09/04 09:28:16;;;;;;;0.63;0.63;;;21.80;95.30;;;;;;5055235;28;20086;-78
2022/09/04 09:31:20;;;;;;;0.13;0.13;;;21.70;94.60;;;;;;5069577;28;20097;-77
2022/09/04 09:34:11;;;;;;;0.57;0.57;;;21.80;95.10;;;;;;5065371;28;20044;-78
2022/09/04 09:37:08;;;;;;;0.30;0.30;;;21.90;95.30;;;;;;5080469;28;20044;-77
2022/09/04 09:40:15;;;;;;;0.32;0.32;;;22.20;95.10;;;;;;5069799;28;20057;-78
2022/09/04 09:43:18;;;;;;;0.35;0.35;;;22.50;94.40;;;;;;5082496;28;20043;-77
2022/09/04 09:46:03;;;;;;;0.30;0.30;;;22.70;93.40;;;;;;5096478;28;20078;-79
2022/09/04 09:48:46;;;;;;;0.40;0.40;;;22.80;93.20;;;;;;5092207;28;20090;-78
2022/09/04 09:51:37;;;;;;;0.10;0.10;;;22.80;91.30;;;;;;5069915;28;20052;-78
2022/09/04 09:54:21;;;;;;;0.20;0.20;;;22.90;91.70;;;;;;5096200;28;20511;-77
2022/09/04 09:57:15;;;;;;;0.20;0.20;;;22.90;90.50;;;;;;5079307;28;20056;-78
2022/09/04 09:59:58;;;;;;;0.30;0.30;;;23.00;90.60;;;;;;5068669;28;20046;-78
2022/09/04 10:02:45;;;;;;;0.20;0.20;;;23.20;90.90;;;;;;5079584;28;20047;-78
2022/09/04 10:05:30;;;;;;;0.20;0.20;;;23.30;90.50;;;;;;5090667;28;20044;-78
2022/09/04 10:08:21;;;;;;;0.20;0.20;;;23.40;89.60;;;;;;5069109;28;20040;-77
2022/09/04 10:10:52;;;;;;;0.20;0.20;;;23.50;89.10;;;;;;5077805;28;20492;-77
2022/09/04 10:13:44;;;;;;;0.30;0.30;;;23.50;88.30;;;;;;5102322;28;20144;-77
2022/09/04 10:16:25;;;;;;;0.10;0.10;;;23.50;88.10;;;;;;5102500;28;20488;-77
2022/09/04 10:18:55;;;;;;;0.30;0.20;;;23.60;88.30;;;;;;5068896;28;20040;-77
2022/09/04 10:21:36;;;;;;;0.20;0.20;;;23.70;82.90;;;;;;5074682;28;20405;-77
2022/09/04 10:24:23;;;;;;;0.20;0.20;;;23.90;85.30;;;;;;5068722;28;20036;-77
2022/09/04 10:26:55;;;;;;;0.40;0.40;;;24.10;85.20;;;;;;5086678;28;20032;-77
2022/09/04 10:29:58;;;;;;;0.28;0.28;;;24.40;80.30;;;;;;5068518;28;20032;-78
2022/09/04 10:32:32;;;;;;;0.20;0.20;;;24.60;80.70;;;;;;5098640;28;20088;-77
2022/09/04 10:35:17;;;;;;;0.45;0.45;;;24.70;81.70;;;;;;5081100;28;20051;-78
2022/09/04 10:37:57;;;;;;;0.10;0.10;;;24.90;81.50;;;;;;5074057;28;20052;-78
2022/09/04 10:40:56;;;;;;;0.20;0.20;;;25.10;77.60;;;;;;5102535;28;20039;-78
2022/09/04 10:44:19;;;;;;;0.13;0.13;;;25.10;78.10;;;;;;5072621;28;20056;-78
2022/09/04 10:47:09;;;;;;;0.17;0.17;;;25.20;78.60;;;;;;5064256;28;20571;-77
2022/09/04 10:50:06;;;;;;;0.20;0.20;;;25.30;75.00;;;;;;5072234;28;20048;-78
2022/09/04 10:53:05;;;;;;;0.10;0.10;;;25.30;74.70;;;;;;5083565;28;20108;-77
2022/09/04 10:56:09;;;;;;;0.20;0.20;;;25.30;73.50;;;;;;5109218;28;20037;-77
2022/09/04 10:58:57;;;;;;;0.20;0.20;;;25.40;73.50;;;;;;5071875;28;20500;-77
2022/09/04 11:01:53;;;;;;;0.30;0.30;;;25.50;72.30;;;;;;5076629;28;20048;-77
2022/09/04 11:04:40;;;;;;;0.20;0.20;;;25.50;71.80;;;;;;5072809;28;20389;-77
2022/09/04 11:07:27;;;;;;;0.13;0.13;;;25.50;70.90;;;;;;5094185;28;20052;-77
2022/09/04 11:10:11;;;;;;;0.20;0.20;;;25.50;72.10;;;;;;5097150;28;20052;-78
2022/09/04 11:13:08;;;;;;;0.30;0.30;;;25.50;70.20;;;;;;5081455;28;20044;-77
2022/09/04 11:16:21;;;;;;;1.13;0.93;;;25.50;71.10;;;;;;5072432;28;20053;-78
2022/09/04 11:19:09;;;;;;;0.20;0.20;;;25.60;70.60;;;;;;5101271;28;20044;-77
2022/09/04 11:21:44;;;;;;;0.15;0.15;;;25.80;71.80;;;;;;5112180;28;20047;-78
2022/09/04 11:24:46;;;;;;;0.30;0.30;;;25.90;70.50;;;;;;5105379;28;20036;-78
2022/09/04 11:27:21;;;;;;;0.30;0.30;;;26.10;70.30;;;;;;5094602;28;20035;-78
2022/09/04 11:30:11;;;;;;;0.20;0.20;;;26.30;70.40;;;;;;5086846;28;20486;-78
2022/09/04 11:33:10;;;;;;;0.35;0.35;;;26.40;68.30;;;;;;5105093;28;20060;-77
2022/09/04 11:36:04;;;;;;;0.75;0.57;;;26.40;67.80;;;;;;5094804;28;20040;-77
2022/09/04 11:39:01;;;;;;;0.63;0.63;;;26.50;67.20;;;;;;5081238;28;20139;-79
2022/09/04 11:41:49;;;;;;;1.20;0.22;;;26.50;66.20;;;;;;5083585;28;20571;-77
2022/09/04 11:44:33;;;;;;;0.40;0.40;;;26.40;67.40;;;;;;5100748;28;20057;-78
2022/09/04 11:47:27;;;;;;;0.20;0.20;;;26.50;67.30;;;;;;5083354;28;20478;-78
2022/09/04 11:50:13;;;;;;;0.20;0.20;;;26.60;69.00;;;;;;5095542;28;20126;-77
2022/09/04 11:53:10;;;;;;;0.38;0.38;;;26.50;68.70;;;;;;5070674;28;20098;-77
2022/09/04 11:55:57;;;;;;;0.20;0.20;;;26.40;66.80;;;;;;5079576;28;20569;-77
2022/09/04 11:58:50;;;;;;;0.20;0.20;;;26.50;67.10;;;;;;5075707;28;20063;-77
2022/09/04 12:01:56;;;;;;;0.20;0.20;;;26.60;65.20;;;;;;5072767;28;20432;-77
2022/09/04 12:04:53;;;;;;;0.20;0.20;;;26.70;66.40;;;;;;5083529;28;20127;-77
2022/09/04 12:07:49;;;;;;;0.17;0.17;;;26.80;66.60;;;;;;5074289;28;20118;-77
2022/09/04 12:10:18;;;;;;;0.70;0.32;;;27.10;65.50;;;;;;5089508;28;20216;-77
2022/09/04 12:12:59;;;;;;;0.30;0.30;;;27.20;64.70;;;;;;5094594;28;20056;-77
2022/09/04 12:15:43;;;;;;;0.20;0.20;;;27.30;65.60;;;;;;5075217;28;20051;-77
2022/09/04 12:18:32;;;;;;;0.25;0.25;;;27.50;66.20;;;;;;5066977;28;20082;-77
2022/09/04 12:21:11;;;;;;;0.20;0.20;;;27.80;65.60;;;;;;5058801;28;20037;-77
2022/09/04 12:23:48;;;;;;;0.28;0.28;;;28.00;62.60;;;;;;5062977;28;20512;-78
2022/09/04 12:26:26;;;;;;;0.20;0.20;;;28.00;64.00;;;;;;5080587;28;20077;-78
2022/09/04 12:29:13;;;;;;;0.15;0.15;;;28.10;63.10;;;;;;5084057;28;20044;-78
2022/09/04 12:32:01;;;;;;;0.17;0.17;;;28.20;63.50;;;;;;5077744;28;20054;-78
2022/09/04 12:34:54;;;;;;;0.45;0.45;;;28.40;63.90;;;;;;5080001;28;20036;-77
2022/09/04 12:37:42;;;;;;;0.20;0.20;;;28.40;62.00;;;;;;5058698;28;20117;-77
2022/09/04 12:40:11;;;;;;;0.10;0.10;;;28.30;61.70;;;;;;5090143;28;20040;-78
2022/09/04 12:43:04;;;;;;;0.40;0.40;;;28.30;61.80;;;;;;5082739;28;20040;-78
2022/09/04 12:45:30;;;;;;;0.20;0.20;;;28.30;61.80;;;;;;5075568;28;20100;-77
2022/09/04 12:48:02;;;;;;;0.10;0.10;;;28.30;61.20;;;;;;5086566;28;20250;-77
2022/09/04 12:50:46;;;;;;;0.38;0.38;;;28.30;62.40;;;;;;5098271;28;20395;-78
2022/09/04 12:53:55;;;;;;;0.30;0.30;;;28.40;62.50;;;;;;5083211;28;20401;-79
2022/09/04 12:56:44;;;;;;;0.25;0.25;;;28.60;61.50;;;;;;5087119;28;20043;-78
2022/09/04 12:59:22;;;;;;;0.30;0.30;;;28.70;60.80;;;;;;5086284;28;20051;-79
2022/09/04 13:01:55;;;;;;;0.20;0.20;;;28.80;61.90;;;;;;5092360;28;20037;-78
2022/09/04 13:04:33;;;;;;;0.55;0.55;;;28.80;59.30;;;;;;5094290;28;20051;-78
2022/09/04 13:07:30;;;;;;;0.17;0.17;;;28.80;59.10;;;;;;5077791;28;20523;-78
2022/09/04 13:10:20;;;;;;;0.13;0.13;;;28.90;59.80;;;;;;5078012;28;20113;-78
2022/09/04 13:13:16;;;;;;;0.10;0.10;;;29.20;61.00;;;;;;5081126;28;20055;-77
2022/09/04 13:16:02;;;;;;;0.10;0.10;;;29.70;60.30;;;;;;5090131;28;20126;-77
2022/09/04 13:19:07;;;;;;;0.30;0.30;;;30.00;59.30;;;;;;5069888;28;20548;-77
2022/09/04 13:22:07;;;;;;;0.22;0.22;;;30.20;56.60;;;;;;5075570;28;20059;-77
2022/09/04 13:24:59;;;;;;;0.20;0.20;;;30.30;57.40;;;;;;5075076;28;20054;-77
2022/09/04 13:27:25;;;;;;;0.43;0.43;;;30.40;56.20;;;;;;5082083;28;20429;-77
2022/09/04 13:30:05;;;;;;;0.13;0.13;;;30.60;57.30;;;;;;5087870;28;20043;-77
2022/09/04 13:32:55;;;;;;;0.10;0.10;;;30.90;88.90;;;;;;5079195;28;20052;-79
2022/09/04 13:36:00;;;;;;;0.10;0.10;;;31.10;61.40;;;;;;5082244;28;20052;-78
2022/09/04 13:38:44;;;;;;;0.50;0.30;;;31.20;55.10;;;;;;5069649;28;20519;-78
2022/09/04 13:41:49;;;;;;;0.03;0.03;;;31.40;54.80;;;;;;5087881;28;20449;-78
2022/09/04 13:44:37;;;;;;;0.30;0.25;;;31.60;55.20;;;;;;5079227;28;20032;-77
2022/09/04 13:47:25;;;;;;;0.08;0.08;;;31.80;54.80;;;;;;5090630;28;20085;-77
2022/09/04 13:50:12;;;;;;;0.10;0.10;;;32.00;52.20;;;;;;5088259;28;20039;-77
2022/09/04 13:52:58;;;;;;;0.32;0.32;;;32.00;55.00;;;;;;5076027;28;20040;-78
2022/09/04 13:55:35;;;;;;;0.32;0.32;;;31.90;55.10;;;;;;5062892;28;20051;-78
2022/09/04 13:58:15;;;;;;;0.10;0.10;;;31.90;52.30;;;;;;5067943;28;20427;-78
2022/09/04 14:00:45;;;;;;;0.30;0.30;;;32.10;55.70;;;;;;5080003;28;20037;-77
2022/09/04 14:03:22;;;;;;;0.70;0.70;;;32.20;55.90;;;;;;5081501;28;20039;-78
2022/09/04 14:05:49;;;;;;;0.10;0.10;;;32.20;58.50;;;;;;5069261;28;20073;-78
2022/09/04 14:08:19;;;;;;;0.20;0.20;;;32.20;53.10;;;;;;5049996;28;20093;-78
2022/09/04 14:11:06;;;;;;;0.10;0.00;;;32.30;52.10;;;;;;5067326;28;20101;-78
2022/09/04 14:13:56;;;;;;;0.13;0.13;;;32.50;51.20;;;;;;5078231;28;20055;-78
2022/09/04 14:16:32;;;;;;;0.00;0.00;;;32.30;51.10;;;;;;5084129;28;20047;-79
2022/09/04 14:19:25;;;;;;;0.10;0.10;;;32.30;51.50;;;;;;5076713;28;20473;-78
2022/09/04 14:22:15;;;;;;;0.20;0.20;;;32.70;52.00;;;;;;5084567;28;20040;-78
2022/09/04 14:24:56;;;;;;;0.20;0.20;;;32.70;51.60;;;;;;5085287;28;20485;-78
2022/09/04 14:27:22;;;;;;;0.10;0.10;;;32.70;51.80;;;;;;5088393;28;20077;-78
2022/09/04 14:30:17;;;;;;;0.15;0.15;;;32.70;50.30;;;;;;5068099;28;20039;-77